sensor_id;sensor_type;location;lat;lon;timestamp;P1;durP1;ratioP1;P2;durP2;ratioP2
23252;SDS011;11795;47.054;15.408;2023-02-15T00:00:02;25.9;;;19.5;;
23252;SDS011;11795;47.054;15.408;2023-02-15T00:02:01;21.3;;;17.0;;
23252;SDS011;11795;47.054;15.408;2023-02-15T00:04:00;21.3;;;17.0;;
23252;SDS011;11795;47.054;15.408;2023-02-15T00:06:00;21.3;;;17.0;;
23252;SDS011;11795;47.054;15.408;2023-02-15T00:08:00;20.8;;;16.4;;
23252;SDS011;11795;47.054;15.408;2023-02-15T00:10:00;20.8;;;16.4;;
23252;SDS011;11795;47.054;15.408;2023-02-15T00:12:00;20.2;;;16.0;;
23252;SDS011;11795;47.054;15.408;2023-02-15T00:14:00;20.2;;;16.0;;
23252;SDS011;11795;47.054;15.408;2023-02-15T00:16:01;20.2;;;16.0;;
23252;SDS011;11795;47.054;15.408;2023-02-15T00:18:00;20.3;;;17.2;;
23252;SDS011;11795;47.054;15.408;2023-02-15T00:20:00;20.3;;;17.2;;
23252;SDS011;11795;47.054;15.408;2023-02-15T00:22:00;22.8;;;16.9;;
23252;SDS011;11795;47.054;15.408;2023-02-15T00:24:01;22.8;;;16.9;;
23252;SDS011;11795;47.054;15.408;2023-02-15T00:26:04;22.8;;;16.9;;
23252;SDS011;11795;47.054;15.408;2023-02-15T00:28:00;21.4;;;16.5;;
23252;SDS011;11795;47.054;15.408;2023-02-15T00:30:00;21.4;;;16.5;;
23252;SDS011;11795;47.054;15.408;2023-02-15T00:32:00;18.7;;;15.3;;
23252;SDS011;11795;47.054;15.408;2023-02-15T00:34:01;18.7;;;15.3;;
23252;SDS011;11795;47.054;15.408;2023-02-15T00:36:00;18.7;;;15.3;;
23252;SDS011;11795;47.054;15.408;2023-02-15T00:38:00;20.3;;;15.4;;
23252;SDS011;11795;47.054;15.408;2023-02-15T00:40:00;20.3;;;15.4;;
23252;SDS011;11795;47.054;15.408;2023-02-15T00:42:00;21.7;;;16.7;;
23252;SDS011;11795;47.054;15.408;2023-02-15T00:44:00;21.7;;;16.7;;
23252;SDS011;11795;47.054;15.408;2023-02-15T00:46:00;21.7;;;16.7;;
23252;SDS011;11795;47.054;15.408;2023-02-15T00:48:00;24.6;;;17.9;;
23252;SDS011;11795;47.054;15.408;2023-02-15T00:50:00;24.6;;;17.9;;
23252;SDS011;11795;47.054;15.408;2023-02-15T00:52:00;20.8;;;15.9;;
23252;SDS011;11795;47.054;15.408;2023-02-15T00:54:00;20.8;;;15.9;;
23252;SDS011;11795;47.054;15.408;2023-02-15T00:56:00;20.8;;;15.9;;
23252;SDS011;11795;47.054;15.408;2023-02-15T00:58:00;19.7;;;15.5;;
23252;SDS011;11795;47.054;15.408;2023-02-15T01:00:00;19.7;;;15.5;;
23252;SDS011;11795;47.054;15.408;2023-02-15T01:02:00;21.2;;;15.9;;
23252;SDS011;11795;47.054;15.408;2023-02-15T01:04:00;21.2;;;15.9;;
23252;SDS011;11795;47.054;15.408;2023-02-15T01:06:00;21.2;;;15.9;;
23252;SDS011;11795;47.054;15.408;2023-02-15T01:08:00;20.2;;;15.4;;
23252;SDS011;11795;47.054;15.408;2023-02-15T01:10:00;20.2;;;15.4;;
23252;SDS011;11795;47.054;15.408;2023-02-15T01:12:00;21.3;;;16.9;;
23252;SDS011;11795;47.054;15.408;2023-02-15T01:14:00;21.3;;;16.9;;
23252;SDS011;11795;47.054;15.408;2023-02-15T01:16:00;21.3;;;16.9;;
23252;SDS011;11795;47.054;15.408;2023-02-15T01:18:00;21.9;;;16.5;;
23252;SDS011;11795;47.054;15.408;2023-02-15T01:20:00;21.9;;;16.5;;
23252;SDS011;11795;47.054;15.408;2023-02-15T01:22:00;20.9;;;15.8;;
23252;SDS011;11795;47.054;15.408;2023-02-15T01:24:00;20.9;;;15.8;;
23252;SDS011;11795;47.054;15.408;2023-02-15T01:26:01;20.9;;;15.8;;
23252;SDS011;11795;47.054;15.408;2023-02-15T01:28:00;20.9;;;16.0;;
23252;SDS011;11795;47.054;15.408;2023-02-15T01:30:00;20.9;;;16.0;;
23252;SDS011;11795;47.054;15.408;2023-02-15T01:32:00;20.6;;;15.8;;
23252;SDS011;11795;47.054;15.408;2023-02-15T01:34:00;20.6;;;15.8;;
23252;SDS011;11795;47.054;15.408;2023-02-15T01:36:00;20.6;;;15.8;;
23252;SDS011;11795;47.054;15.408;2023-02-15T01:38:00;17.7;;;14.6;;
23252;SDS011;11795;47.054;15.408;2023-02-15T01:40:00;17.7;;;14.6;;
23252;SDS011;11795;47.054;15.408;2023-02-15T01:42:00;18.4;;;14.4;;
23252;SDS011;11795;47.054;15.408;2023-02-15T01:44:01;18.4;;;14.4;;
23252;SDS011;11795;47.054;15.408;2023-02-15T01:46:00;18.4;;;14.4;;
23252;SDS011;11795;47.054;15.408;2023-02-15T01:48:03;20.5;;;15.6;;
23252;SDS011;11795;47.054;15.408;2023-02-15T01:50:02;20.5;;;15.6;;
23252;SDS011;11795;47.054;15.408;2023-02-15T01:52:00;19.4;;;15.2;;
23252;SDS011;11795;47.054;15.408;2023-02-15T01:54:01;19.4;;;15.2;;
23252;SDS011;11795;47.054;15.408;2023-02-15T01:56:01;19.4;;;15.2;;
23252;SDS011;11795;47.054;15.408;2023-02-15T01:58:00;19.6;;;15.9;;
23252;SDS011;11795;47.054;15.408;2023-02-15T02:00:01;19.6;;;15.9;;
23252;SDS011;11795;47.054;15.408;2023-02-15T02:02:00;21.9;;;15.8;;
23252;SDS011;11795;47.054;15.408;2023-02-15T02:04:02;21.9;;;15.8;;
23252;SDS011;11795;47.054;15.408;2023-02-15T02:06:00;21.9;;;15.8;;
23252;SDS011;11795;47.054;15.408;2023-02-15T02:08:01;19.5;;;15.4;;
23252;SDS011;11795;47.054;15.408;2023-02-15T02:10:00;19.5;;;15.4;;
23252;SDS011;11795;47.054;15.408;2023-02-15T02:12:00;25.0;;;17.8;;
23252;SDS011;11795;47.054;15.408;2023-02-15T02:14:00;25.0;;;17.8;;
23252;SDS011;11795;47.054;15.408;2023-02-15T02:16:00;25.0;;;17.8;;
23252;SDS011;11795;47.054;15.408;2023-02-15T02:18:03;24.3;;;18.1;;
23252;SDS011;11795;47.054;15.408;2023-02-15T02:20:06;24.3;;;18.1;;
23252;SDS011;11795;47.054;15.408;2023-02-15T02:22:05;23.4;;;17.5;;
23252;SDS011;11795;47.054;15.408;2023-02-15T02:24:06;23.4;;;17.5;;
23252;SDS011;11795;47.054;15.408;2023-02-15T02:26:07;23.4;;;17.5;;
23252;SDS011;11795;47.054;15.408;2023-02-15T02:28:01;22.2;;;17.1;;
23252;SDS011;11795;47.054;15.408;2023-02-15T02:32:07;21.3;;;16.2;;
23252;SDS011;11795;47.054;15.408;2023-02-15T02:34:01;21.3;;;16.2;;
23252;SDS011;11795;47.054;15.408;2023-02-15T02:36:03;21.3;;;16.2;;
23252;SDS011;11795;47.054;15.408;2023-02-15T02:38:03;21.4;;;16.4;;
23252;SDS011;11795;47.054;15.408;2023-02-15T02:40:02;21.4;;;16.4;;
23252;SDS011;11795;47.054;15.408;2023-02-15T02:42:01;20.5;;;16.3;;
23252;SDS011;11795;47.054;15.408;2023-02-15T02:44:04;20.5;;;16.3;;
23252;SDS011;11795;47.054;15.408;2023-02-15T02:46:01;20.5;;;16.3;;
23252;SDS011;11795;47.054;15.408;2023-02-15T02:48:02;21.4;;;16.7;;
23252;SDS011;11795;47.054;15.408;2023-02-15T02:50:01;21.4;;;16.7;;
23252;SDS011;11795;47.054;15.408;2023-02-15T02:52:00;21.2;;;15.5;;
23252;SDS011;11795;47.054;15.408;2023-02-15T02:54:00;21.2;;;15.5;;
23252;SDS011;11795;47.054;15.408;2023-02-15T02:56:03;21.2;;;15.5;;
23252;SDS011;11795;47.054;15.408;2023-02-15T02:58:01;23.1;;;17.4;;
23252;SDS011;11795;47.054;15.408;2023-02-15T03:00:00;23.1;;;17.4;;
23252;SDS011;11795;47.054;15.408;2023-02-15T03:02:01;22.3;;;16.7;;
23252;SDS011;11795;47.054;15.408;2023-02-15T03:04:01;22.3;;;16.7;;
23252;SDS011;11795;47.054;15.408;2023-02-15T03:06:01;22.3;;;16.7;;
23252;SDS011;11795;47.054;15.408;2023-02-15T03:08:05;23.1;;;17.8;;
23252;SDS011;11795;47.054;15.408;2023-02-15T03:10:00;23.1;;;17.8;;
23252;SDS011;11795;47.054;15.408;2023-02-15T03:12:00;23.2;;;17.4;;
23252;SDS011;11795;47.054;15.408;2023-02-15T03:14:00;23.2;;;17.4;;
23252;SDS011;11795;47.054;15.408;2023-02-15T03:16:10;23.2;;;17.4;;
23252;SDS011;11795;47.054;15.408;2023-02-15T03:18:02;24.9;;;18.5;;
23252;SDS011;11795;47.054;15.408;2023-02-15T03:20:01;24.9;;;18.5;;
23252;SDS011;11795;47.054;15.408;2023-02-15T03:22:10;22.0;;;17.0;;
23252;SDS011;11795;47.054;15.408;2023-02-15T03:24:03;22.0;;;17.0;;
23252;SDS011;11795;47.054;15.408;2023-02-15T03:26:01;22.0;;;17.0;;
23252;SDS011;11795;47.054;15.408;2023-02-15T03:28:01;21.1;;;16.1;;
23252;SDS011;11795;47.054;15.408;2023-02-15T03:30:00;21.1;;;16.1;;
23252;SDS011;11795;47.054;15.408;2023-02-15T03:32:02;26.6;;;19.7;;
23252;SDS011;11795;47.054;15.408;2023-02-15T03:34:02;26.6;;;19.7;;
23252;SDS011;11795;47.054;15.408;2023-02-15T03:36:01;26.6;;;19.7;;
23252;SDS011;11795;47.054;15.408;2023-02-15T03:38:00;23.3;;;17.7;;
23252;SDS011;11795;47.054;15.408;2023-02-15T03:40:11;23.3;;;17.7;;
23252;SDS011;11795;47.054;15.408;2023-02-15T03:42:03;22.9;;;17.2;;
23252;SDS011;11795;47.054;15.408;2023-02-15T03:44:00;22.9;;;17.2;;
23252;SDS011;11795;47.054;15.408;2023-02-15T03:46:01;22.9;;;17.2;;
23252;SDS011;11795;47.054;15.408;2023-02-15T03:48:00;25.4;;;18.3;;
23252;SDS011;11795;47.054;15.408;2023-02-15T03:50:01;25.4;;;18.3;;
23252;SDS011;11795;47.054;15.408;2023-02-15T03:52:00;26.5;;;19.2;;
23252;SDS011;11795;47.054;15.408;2023-02-15T03:54:00;26.5;;;19.2;;
23252;SDS011;11795;47.054;15.408;2023-02-15T03:56:00;26.5;;;19.2;;
23252;SDS011;11795;47.054;15.408;2023-02-15T03:58:10;27.5;;;20.5;;
23252;SDS011;11795;47.054;15.408;2023-02-15T04:00:12;27.5;;;20.5;;
23252;SDS011;11795;47.054;15.408;2023-02-15T04:02:03;25.7;;;18.4;;
23252;SDS011;11795;47.054;15.408;2023-02-15T04:04:01;25.7;;;18.4;;
23252;SDS011;11795;47.054;15.408;2023-02-15T04:06:00;25.7;;;18.4;;
23252;SDS011;11795;47.054;15.408;2023-02-15T04:08:00;26.8;;;19.3;;
23252;SDS011;11795;47.054;15.408;2023-02-15T04:10:10;26.8;;;19.3;;
23252;SDS011;11795;47.054;15.408;2023-02-15T04:12:00;23.3;;;18.4;;
23252;SDS011;11795;47.054;15.408;2023-02-15T04:14:10;23.3;;;18.4;;
23252;SDS011;11795;47.054;15.408;2023-02-15T04:16:03;23.3;;;18.4;;
23252;SDS011;11795;47.054;15.408;2023-02-15T04:18:02;32.2;;;22.5;;
23252;SDS011;11795;47.054;15.408;2023-02-15T04:20:10;32.2;;;22.5;;
23252;SDS011;11795;47.054;15.408;2023-02-15T04:22:10;32.0;;;22.9;;
23252;SDS011;11795;47.054;15.408;2023-02-15T04:24:10;32.0;;;22.9;;
23252;SDS011;11795;47.054;15.408;2023-02-15T04:26:02;32.0;;;22.9;;
23252;SDS011;11795;47.054;15.408;2023-02-15T04:28:00;29.6;;;20.2;;
23252;SDS011;11795;47.054;15.408;2023-02-15T04:30:00;29.6;;;20.2;;
23252;SDS011;11795;47.054;15.408;2023-02-15T04:32:00;28.9;;;21.0;;
23252;SDS011;11795;47.054;15.408;2023-02-15T04:34:05;28.9;;;21.0;;
23252;SDS011;11795;47.054;15.408;2023-02-15T04:36:00;28.9;;;21.0;;
23252;SDS011;11795;47.054;15.408;2023-02-15T04:38:00;24.9;;;18.2;;
23252;SDS011;11795;47.054;15.408;2023-02-15T04:40:00;24.9;;;18.2;;
23252;SDS011;11795;47.054;15.408;2023-02-15T04:42:00;27.0;;;19.3;;
23252;SDS011;11795;47.054;15.408;2023-02-15T04:44:00;27.0;;;19.3;;
23252;SDS011;11795;47.054;15.408;2023-02-15T04:46:00;27.0;;;19.3;;
23252;SDS011;11795;47.054;15.408;2023-02-15T04:48:00;25.5;;;19.1;;
23252;SDS011;11795;47.054;15.408;2023-02-15T04:50:00;25.5;;;19.1;;
23252;SDS011;11795;47.054;15.408;2023-02-15T04:52:00;26.8;;;19.1;;
23252;SDS011;11795;47.054;15.408;2023-02-15T04:54:00;26.8;;;19.1;;
23252;SDS011;11795;47.054;15.408;2023-02-15T04:56:00;26.8;;;19.1;;
23252;SDS011;11795;47.054;15.408;2023-02-15T04:58:00;24.7;;;18.5;;
23252;SDS011;11795;47.054;15.408;2023-02-15T05:00:00;24.7;;;18.5;;
23252;SDS011;11795;47.054;15.408;2023-02-15T05:02:00;26.7;;;19.1;;
23252;SDS011;11795;47.054;15.408;2023-02-15T05:04:00;26.7;;;19.1;;
23252;SDS011;11795;47.054;15.408;2023-02-15T05:06:00;26.7;;;19.1;;
23252;SDS011;11795;47.054;15.408;2023-02-15T05:08:01;27.7;;;19.1;;
23252;SDS011;11795;47.054;15.408;2023-02-15T05:10:00;27.7;;;19.1;;
23252;SDS011;11795;47.054;15.408;2023-02-15T05:12:00;27.6;;;19.2;;
23252;SDS011;11795;47.054;15.408;2023-02-15T05:14:00;27.6;;;19.2;;
23252;SDS011;11795;47.054;15.408;2023-02-15T05:16:00;27.6;;;19.2;;
23252;SDS011;11795;47.054;15.408;2023-02-15T05:18:01;26.5;;;19.2;;
23252;SDS011;11795;47.054;15.408;2023-02-15T05:20:00;26.5;;;19.2;;
23252;SDS011;11795;47.054;15.408;2023-02-15T05:22:00;27.6;;;19.4;;
23252;SDS011;11795;47.054;15.408;2023-02-15T05:24:00;27.6;;;19.4;;
23252;SDS011;11795;47.054;15.408;2023-02-15T05:26:10;27.6;;;19.4;;
23252;SDS011;11795;47.054;15.408;2023-02-15T05:28:10;27.8;;;20.2;;
23252;SDS011;11795;47.054;15.408;2023-02-15T05:30:00;27.8;;;20.2;;
23252;SDS011;11795;47.054;15.408;2023-02-15T05:32:00;29.3;;;20.0;;
23252;SDS011;11795;47.054;15.408;2023-02-15T05:34:00;29.3;;;20.0;;
23252;SDS011;11795;47.054;15.408;2023-02-15T05:36:00;29.3;;;20.0;;
23252;SDS011;11795;47.054;15.408;2023-02-15T05:38:00;30.8;;;20.8;;
23252;SDS011;11795;47.054;15.408;2023-02-15T05:40:00;30.8;;;20.8;;
23252;SDS011;11795;47.054;15.408;2023-02-15T05:42:00;31.9;;;21.3;;
23252;SDS011;11795;47.054;15.408;2023-02-15T05:44:00;31.9;;;21.3;;
23252;SDS011;11795;47.054;15.408;2023-02-15T05:46:00;31.9;;;21.3;;
23252;SDS011;11795;47.054;15.408;2023-02-15T05:48:00;31.7;;;20.9;;
23252;SDS011;11795;47.054;15.408;2023-02-15T05:50:00;31.7;;;20.9;;
23252;SDS011;11795;47.054;15.408;2023-02-15T05:52:00;29.6;;;19.6;;
23252;SDS011;11795;47.054;15.408;2023-02-15T05:54:01;29.6;;;19.6;;
23252;SDS011;11795;47.054;15.408;2023-02-15T05:56:00;29.6;;;19.6;;
23252;SDS011;11795;47.054;15.408;2023-02-15T05:58:00;31.9;;;20.3;;
23252;SDS011;11795;47.054;15.408;2023-02-15T06:00:00;31.9;;;20.3;;
23252;SDS011;11795;47.054;15.408;2023-02-15T06:02:00;27.6;;;19.5;;
23252;SDS011;11795;47.054;15.408;2023-02-15T06:04:00;27.6;;;19.5;;
23252;SDS011;11795;47.054;15.408;2023-02-15T06:06:00;27.6;;;19.5;;
23252;SDS011;11795;47.054;15.408;2023-02-15T06:08:00;30.3;;;20.0;;
23252;SDS011;11795;47.054;15.408;2023-02-15T06:10:00;30.3;;;20.0;;
23252;SDS011;11795;47.054;15.408;2023-02-15T06:12:00;28.7;;;18.6;;
23252;SDS011;11795;47.054;15.408;2023-02-15T06:14:00;28.7;;;18.6;;
23252;SDS011;11795;47.054;15.408;2023-02-15T06:16:00;28.7;;;18.6;;
23252;SDS011;11795;47.054;15.408;2023-02-15T06:18:00;27.7;;;18.7;;
23252;SDS011;11795;47.054;15.408;2023-02-15T06:20:00;27.7;;;18.7;;
23252;SDS011;11795;47.054;15.408;2023-02-15T06:22:00;28.0;;;19.9;;
23252;SDS011;11795;47.054;15.408;2023-02-15T06:24:00;28.0;;;19.9;;
23252;SDS011;11795;47.054;15.408;2023-02-15T06:26:00;28.0;;;19.9;;
23252;SDS011;11795;47.054;15.408;2023-02-15T06:28:00;25.3;;;18.9;;
23252;SDS011;11795;47.054;15.408;2023-02-15T06:30:00;25.3;;;18.9;;
23252;SDS011;11795;47.054;15.408;2023-02-15T06:32:00;30.6;;;20.1;;
23252;SDS011;11795;47.054;15.408;2023-02-15T06:34:01;30.6;;;20.1;;
23252;SDS011;11795;47.054;15.408;2023-02-15T06:36:00;30.6;;;20.1;;
23252;SDS011;11795;47.054;15.408;2023-02-15T06:38:00;27.7;;;19.4;;
23252;SDS011;11795;47.054;15.408;2023-02-15T06:40:00;27.7;;;19.4;;
23252;SDS011;11795;47.054;15.408;2023-02-15T06:42:00;29.2;;;20.5;;
23252;SDS011;11795;47.054;15.408;2023-02-15T06:44:00;29.2;;;20.5;;
23252;SDS011;11795;47.054;15.408;2023-02-15T06:46:00;29.2;;;20.5;;
23252;SDS011;11795;47.054;15.408;2023-02-15T06:48:00;28.9;;;19.4;;
23252;SDS011;11795;47.054;15.408;2023-02-15T06:50:00;28.9;;;19.4;;
23252;SDS011;11795;47.054;15.408;2023-02-15T06:52:00;28.3;;;19.9;;
23252;SDS011;11795;47.054;15.408;2023-02-15T06:54:00;28.3;;;19.9;;
23252;SDS011;11795;47.054;15.408;2023-02-15T06:56:00;28.3;;;19.9;;
23252;SDS011;11795;47.054;15.408;2023-02-15T06:58:00;28.8;;;18.7;;
23252;SDS011;11795;47.054;15.408;2023-02-15T07:00:00;28.8;;;18.7;;
23252;SDS011;11795;47.054;15.408;2023-02-15T07:02:00;29.2;;;19.9;;
23252;SDS011;11795;47.054;15.408;2023-02-15T07:04:00;29.2;;;19.9;;
23252;SDS011;11795;47.054;15.408;2023-02-15T07:06:01;29.2;;;19.9;;
23252;SDS011;11795;47.054;15.408;2023-02-15T07:08:00;27.6;;;20.0;;
23252;SDS011;11795;47.054;15.408;2023-02-15T07:10:00;27.6;;;20.0;;
23252;SDS011;11795;47.054;15.408;2023-02-15T07:12:10;26.5;;;19.1;;
23252;SDS011;11795;47.054;15.408;2023-02-15T07:14:00;26.5;;;19.1;;
23252;SDS011;11795;47.054;15.408;2023-02-15T07:16:00;26.5;;;19.1;;
23252;SDS011;11795;47.054;15.408;2023-02-15T07:18:00;28.4;;;19.2;;
23252;SDS011;11795;47.054;15.408;2023-02-15T07:20:00;28.4;;;19.2;;
23252;SDS011;11795;47.054;15.408;2023-02-15T07:22:00;31.5;;;21.1;;
23252;SDS011;11795;47.054;15.408;2023-02-15T07:24:00;31.5;;;21.1;;
23252;SDS011;11795;47.054;15.408;2023-02-15T07:26:00;31.5;;;21.1;;
23252;SDS011;11795;47.054;15.408;2023-02-15T07:28:01;32.7;;;21.3;;
23252;SDS011;11795;47.054;15.408;2023-02-15T07:30:00;32.7;;;21.3;;
23252;SDS011;11795;47.054;15.408;2023-02-15T07:32:00;32.9;;;22.4;;
23252;SDS011;11795;47.054;15.408;2023-02-15T07:34:00;32.9;;;22.4;;
23252;SDS011;11795;47.054;15.408;2023-02-15T07:36:02;32.9;;;22.4;;
23252;SDS011;11795;47.054;15.408;2023-02-15T07:38:00;30.5;;;20.2;;
23252;SDS011;11795;47.054;15.408;2023-02-15T07:40:00;30.5;;;20.2;;
23252;SDS011;11795;47.054;15.408;2023-02-15T07:42:00;31.5;;;22.0;;
23252;SDS011;11795;47.054;15.408;2023-02-15T07:44:00;31.5;;;22.0;;
23252;SDS011;11795;47.054;15.408;2023-02-15T07:46:00;31.5;;;22.0;;
23252;SDS011;11795;47.054;15.408;2023-02-15T07:48:00;30.9;;;22.1;;
23252;SDS011;11795;47.054;15.408;2023-02-15T07:50:00;30.9;;;22.1;;
23252;SDS011;11795;47.054;15.408;2023-02-15T07:52:00;31.9;;;22.7;;
23252;SDS011;11795;47.054;15.408;2023-02-15T07:54:00;31.9;;;22.7;;
23252;SDS011;11795;47.054;15.408;2023-02-15T07:56:00;31.9;;;22.7;;
23252;SDS011;11795;47.054;15.408;2023-02-15T07:58:00;33.1;;;23.5;;
23252;SDS011;11795;47.054;15.408;2023-02-15T08:00:00;33.1;;;23.5;;
23252;SDS011;11795;47.054;15.408;2023-02-15T08:02:00;31.6;;;22.7;;
23252;SDS011;11795;47.054;15.408;2023-02-15T08:04:00;31.6;;;22.7;;
23252;SDS011;11795;47.054;15.408;2023-02-15T08:06:00;31.6;;;22.7;;
23252;SDS011;11795;47.054;15.408;2023-02-15T08:08:00;32.3;;;23.6;;
23252;SDS011;11795;47.054;15.408;2023-02-15T08:10:00;32.3;;;23.6;;
23252;SDS011;11795;47.054;15.408;2023-02-15T08:12:00;32.8;;;23.3;;
23252;SDS011;11795;47.054;15.408;2023-02-15T08:14:03;32.8;;;23.3;;
23252;SDS011;11795;47.054;15.408;2023-02-15T08:16:00;32.8;;;23.3;;
23252;SDS011;11795;47.054;15.408;2023-02-15T08:18:00;34.4;;;24.2;;
23252;SDS011;11795;47.054;15.408;2023-02-15T08:20:00;34.4;;;24.2;;
23252;SDS011;11795;47.054;15.408;2023-02-15T08:22:01;35.1;;;23.9;;
23252;SDS011;11795;47.054;15.408;2023-02-15T08:24:00;35.1;;;23.9;;
23252;SDS011;11795;47.054;15.408;2023-02-15T08:26:00;35.1;;;23.9;;
23252;SDS011;11795;47.054;15.408;2023-02-15T08:28:00;32.3;;;23.7;;
23252;SDS011;11795;47.054;15.408;2023-02-15T08:30:00;32.3;;;23.7;;
23252;SDS011;11795;47.054;15.408;2023-02-15T08:32:03;35.7;;;24.2;;
23252;SDS011;11795;47.054;15.408;2023-02-15T08:34:00;35.7;;;24.2;;
23252;SDS011;11795;47.054;15.408;2023-02-15T08:36:03;35.7;;;24.2;;
23252;SDS011;11795;47.054;15.408;2023-02-15T08:38:00;33.8;;;23.5;;
23252;SDS011;11795;47.054;15.408;2023-02-15T08:40:00;33.8;;;23.5;;
23252;SDS011;11795;47.054;15.408;2023-02-15T08:42:00;31.1;;;22.3;;
23252;SDS011;11795;47.054;15.408;2023-02-15T08:44:00;31.1;;;22.3;;
23252;SDS011;11795;47.054;15.408;2023-02-15T08:46:00;31.1;;;22.3;;
23252;SDS011;11795;47.054;15.408;2023-02-15T08:48:00;30.3;;;22.1;;
23252;SDS011;11795;47.054;15.408;2023-02-15T08:50:00;30.3;;;22.1;;
23252;SDS011;11795;47.054;15.408;2023-02-15T08:52:00;32.9;;;22.0;;
23252;SDS011;11795;47.054;15.408;2023-02-15T08:54:01;32.9;;;22.0;;
23252;SDS011;11795;47.054;15.408;2023-02-15T08:56:00;32.9;;;22.0;;
23252;SDS011;11795;47.054;15.408;2023-02-15T08:58:00;29.7;;;21.3;;
23252;SDS011;11795;47.054;15.408;2023-02-15T09:00:00;29.7;;;21.3;;
23252;SDS011;11795;47.054;15.408;2023-02-15T09:02:00;33.1;;;22.9;;
23252;SDS011;11795;47.054;15.408;2023-02-15T09:04:01;33.1;;;22.9;;
23252;SDS011;11795;47.054;15.408;2023-02-15T09:06:00;33.1;;;22.9;;
23252;SDS011;11795;47.054;15.408;2023-02-15T09:08:00;30.0;;;22.1;;
23252;SDS011;11795;47.054;15.408;2023-02-15T09:10:00;30.0;;;22.1;;
23252;SDS011;11795;47.054;15.408;2023-02-15T09:12:00;35.6;;;25.1;;
23252;SDS011;11795;47.054;15.408;2023-02-15T09:14:00;35.6;;;25.1;;
23252;SDS011;11795;47.054;15.408;2023-02-15T09:16:00;35.6;;;25.1;;
23252;SDS011;11795;47.054;15.408;2023-02-15T09:18:04;40.5;;;26.9;;
23252;SDS011;11795;47.054;15.408;2023-02-15T09:20:00;40.5;;;26.9;;
23252;SDS011;11795;47.054;15.408;2023-02-15T09:22:00;40.3;;;28.1;;
23252;SDS011;11795;47.054;15.408;2023-02-15T09:24:01;40.3;;;28.1;;
23252;SDS011;11795;47.054;15.408;2023-02-15T09:26:02;40.3;;;28.1;;
23252;SDS011;11795;47.054;15.408;2023-02-15T09:28:00;41.0;;;28.7;;
23252;SDS011;11795;47.054;15.408;2023-02-15T09:30:00;41.0;;;28.7;;
23252;SDS011;11795;47.054;15.408;2023-02-15T09:32:00;42.3;;;28.9;;
23252;SDS011;11795;47.054;15.408;2023-02-15T09:34:01;42.3;;;28.9;;
23252;SDS011;11795;47.054;15.408;2023-02-15T09:36:00;42.3;;;28.9;;
23252;SDS011;11795;47.054;15.408;2023-02-15T09:38:00;39.1;;;27.5;;
23252;SDS011;11795;47.054;15.408;2023-02-15T09:40:00;39.1;;;27.5;;
23252;SDS011;11795;47.054;15.408;2023-02-15T09:44:03;38.2;;;26.8;;
23252;SDS011;11795;47.054;15.408;2023-02-15T09:46:04;38.2;;;26.8;;
23252;SDS011;11795;47.054;15.408;2023-02-15T09:48:08;40.6;;;28.4;;
23252;SDS011;11795;47.054;15.408;2023-02-15T09:50:01;40.6;;;28.4;;
23252;SDS011;11795;47.054;15.408;2023-02-15T09:52:04;41.6;;;29.0;;
23252;SDS011;11795;47.054;15.408;2023-02-15T09:54:05;41.6;;;29.0;;
23252;SDS011;11795;47.054;15.408;2023-02-15T09:56:02;41.6;;;29.0;;
23252;SDS011;11795;47.054;15.408;2023-02-15T09:58:04;39.6;;;27.9;;
23252;SDS011;11795;47.054;15.408;2023-02-15T10:00:02;39.6;;;27.9;;
23252;SDS011;11795;47.054;15.408;2023-02-15T10:02:03;43.2;;;28.9;;
23252;SDS011;11795;47.054;15.408;2023-02-15T10:04:04;43.2;;;28.9;;
23252;SDS011;11795;47.054;15.408;2023-02-15T10:06:05;43.2;;;28.9;;
23252;SDS011;11795;47.054;15.408;2023-02-15T10:08:06;38.7;;;27.9;;
23252;SDS011;11795;47.054;15.408;2023-02-15T10:10:03;38.7;;;27.9;;
23252;SDS011;11795;47.054;15.408;2023-02-15T10:12:04;40.2;;;27.6;;
23252;SDS011;11795;47.054;15.408;2023-02-15T10:14:04;40.2;;;27.6;;
23252;SDS011;11795;47.054;15.408;2023-02-15T10:16:05;40.2;;;27.6;;
23252;SDS011;11795;47.054;15.408;2023-02-15T10:20:08;40.9;;;28.0;;
23252;SDS011;11795;47.054;15.408;2023-02-15T10:22:03;39.9;;;28.8;;
23252;SDS011;11795;47.054;15.408;2023-02-15T10:24:04;39.9;;;28.8;;
23252;SDS011;11795;47.054;15.408;2023-02-15T10:26:01;39.9;;;28.8;;
23252;SDS011;11795;47.054;15.408;2023-02-15T10:28:02;40.6;;;28.8;;
23252;SDS011;11795;47.054;15.408;2023-02-15T10:30:02;40.6;;;28.8;;
23252;SDS011;11795;47.054;15.408;2023-02-15T10:32:03;41.1;;;28.9;;
23252;SDS011;11795;47.054;15.408;2023-02-15T10:34:06;41.1;;;28.9;;
23252;SDS011;11795;47.054;15.408;2023-02-15T10:36:02;41.1;;;28.9;;
23252;SDS011;11795;47.054;15.408;2023-02-15T10:38:05;41.1;;;28.3;;
23252;SDS011;11795;47.054;15.408;2023-02-15T10:40:02;41.1;;;28.3;;
23252;SDS011;11795;47.054;15.408;2023-02-15T10:42:02;38.0;;;27.5;;
23252;SDS011;11795;47.054;15.408;2023-02-15T10:44:05;38.0;;;27.5;;
23252;SDS011;11795;47.054;15.408;2023-02-15T10:46:02;38.0;;;27.5;;
23252;SDS011;11795;47.054;15.408;2023-02-15T10:48:04;42.2;;;28.6;;
23252;SDS011;11795;47.054;15.408;2023-02-15T10:50:06;42.2;;;28.6;;
23252;SDS011;11795;47.054;15.408;2023-02-15T10:52:05;42.6;;;29.5;;
23252;SDS011;11795;47.054;15.408;2023-02-15T10:54:03;42.6;;;29.5;;
23252;SDS011;11795;47.054;15.408;2023-02-15T10:56:03;42.6;;;29.5;;
23252;SDS011;11795;47.054;15.408;2023-02-15T10:58:03;40.6;;;29.0;;
23252;SDS011;11795;47.054;15.408;2023-02-15T11:00:03;40.6;;;29.0;;
23252;SDS011;11795;47.054;15.408;2023-02-15T11:02:01;45.2;;;30.5;;
23252;SDS011;11795;47.054;15.408;2023-02-15T11:06:01;45.2;;;30.5;;
23252;SDS011;11795;47.054;15.408;2023-02-15T11:08:00;47.0;;;31.7;;
23252;SDS011;11795;47.054;15.408;2023-02-15T11:10:01;47.0;;;31.7;;
23252;SDS011;11795;47.054;15.408;2023-02-15T11:12:00;45.2;;;30.6;;
23252;SDS011;11795;47.054;15.408;2023-02-15T11:14:01;45.2;;;30.6;;
23252;SDS011;11795;47.054;15.408;2023-02-15T11:16:00;45.2;;;30.6;;
23252;SDS011;11795;47.054;15.408;2023-02-15T11:18:02;43.2;;;30.2;;
23252;SDS011;11795;47.054;15.408;2023-02-15T11:20:04;43.2;;;30.2;;
23252;SDS011;11795;47.054;15.408;2023-02-15T11:22:01;41.6;;;28.6;;
23252;SDS011;11795;47.054;15.408;2023-02-15T11:24:00;41.6;;;28.6;;
23252;SDS011;11795;47.054;15.408;2023-02-15T11:26:01;41.6;;;28.6;;
23252;SDS011;11795;47.054;15.408;2023-02-15T11:28:00;43.0;;;30.0;;
23252;SDS011;11795;47.054;15.408;2023-02-15T11:30:01;43.0;;;30.0;;
23252;SDS011;11795;47.054;15.408;2023-02-15T11:32:02;45.1;;;30.7;;
23252;SDS011;11795;47.054;15.408;2023-02-15T11:34:01;45.1;;;30.7;;
23252;SDS011;11795;47.054;15.408;2023-02-15T11:36:01;45.1;;;30.7;;
23252;SDS011;11795;47.054;15.408;2023-02-15T11:38:01;42.8;;;29.5;;
23252;SDS011;11795;47.054;15.408;2023-02-15T11:40:00;42.8;;;29.5;;
23252;SDS011;11795;47.054;15.408;2023-02-15T11:42:01;42.0;;;30.1;;
23252;SDS011;11795;47.054;15.408;2023-02-15T11:44:03;42.0;;;30.1;;
23252;SDS011;11795;47.054;15.408;2023-02-15T11:46:00;42.0;;;30.1;;
23252;SDS011;11795;47.054;15.408;2023-02-15T11:48:00;45.0;;;30.5;;
23252;SDS011;11795;47.054;15.408;2023-02-15T11:50:00;45.0;;;30.5;;
23252;SDS011;11795;47.054;15.408;2023-02-15T11:52:00;40.7;;;28.9;;
23252;SDS011;11795;47.054;15.408;2023-02-15T11:54:00;40.7;;;28.9;;
23252;SDS011;11795;47.054;15.408;2023-02-15T11:56:00;40.7;;;28.9;;
23252;SDS011;11795;47.054;15.408;2023-02-15T11:58:01;42.5;;;29.6;;